Time,TemperatureF,DewpointF,PressureIn,WindDirection,WindDirectionDegrees,WindSpeedMPH,WindSpeedGustMPH,Humidity,HourlyPrecipIn,Conditions,Clouds,dailyrainin,SoftwareType,DateUTC
2013-02-01 00:04:00,46.7,17.0,30.05,North,0,0.0,-999.0,30,-99.99,,,0.00,weatherlink.com 1.10,2013-02-01 08:04:00,
2013-02-01 00:20:00,47.1,16.0,30.06,North,0,0.0,-999.0,29,-99.99,,,0.00,weatherlink.com 1.10,2013-02-01 08:20:00,
2013-02-01 00:35:00,47.3,18.0,30.05,North,0,0.0,-999.0,31,-99.99,,,0.00,weatherlink.com 1.10,2013-02-01 08:35:00,
2013-02-01 00:49:00,47.1,18.0,30.06,North,0,0.0,-999.0,31,-99.99,,,0.00,weatherlink.com 1.10,2013-02-01 08:49:00,
2013-02-01 01:04:00,47.3,17.0,30.05,North,0,0.0,-999.0,30,-99.99,,,0.00,weatherlink.com 1.10,2013-02-01 09:04:00,
2013-02-01 01:20:00,47.4,19.0,30.05,North,0,0.0,-999.0,32,-99.99,,,0.00,weatherlink.com 1.10,2013-02-01 09:20:00,
2013-02-01 01:34:00,48.5,20.0,30.04,North,0,0.0,-999.0,33,-99.99,,,0.00,weatherlink.com 1.10,2013-02-01 09:34:00,
2013-02-01 01:49:00,49.8,19.0,30.02,North,0,0.0,-999.0,29,-99.99,,,0.00,weatherlink.com 1.10,2013-02-01 09:49:00,
2013-02-01 02:04:00,49.5,17.0,30.02,North,0,0.0,-999.0,28,-99.99,,,0.00,weatherlink.com 1.10,2013-02-01 10:04:00,
2013-02-01 02:19:00,48.8,18.0,30.02,North,0,0.0,-999.0,30,-99.99,,,0.00,weatherlink.com 1.10,2013-02-01 10:19:00,
2013-02-01 02:34:00,48.9,18.0,30.02,North,0,0.0,-999.0,29,-99.99,,,0.00,weatherlink.com 1.10,2013-02-01 10:34:00,
2013-02-01 02:50:00,48.6,19.0,30.02,North,0,0.0,-999.0,31,-99.99,,,0.00,weatherlink.com 1.10,2013-02-01 10:50:00,
2013-02-01 03:04:00,47.6,20.0,30.03,North,0,0.0,-999.0,34,-99.99,,,0.00,weatherlink.com 1.10,2013-02-01 11:04:00,
2013-02-01 03:20:00,46.9,20.0,30.03,North,0,0.0,-999.0,35,-99.99,,,0.00,weatherlink.com 1.10,2013-02-01 11:20:00,
2013-02-01 03:34:00,47.3,18.0,30.03,North,0,0.0,-999.0,31,-99.99,,,0.00,weatherlink.com 1.10,2013-02-01 11:34:00,
2013-02-01 04:05:00,48.6,16.0,30.02,North,0,0.0,-999.0,27,-99.99,,,0.00,weatherlink.com 1.10,2013-02-01 12:05:00,
2013-02-01 04:20:00,49.5,17.0,30.04,North,0,0.0,-999.0,27,-99.99,,,0.00,weatherlink.com 1.10,2013-02-01 12:20:00,
2013-02-01 04:35:00,49.7,17.0,30.02,NNW,347,0.0,-999.0,27,-99.99,,,0.00,weatherlink.com 1.10,2013-02-01 12:35:00,
2013-02-01 04:49:00,49.1,17.0,30.03,North,349,0.0,-999.0,28,-99.99,,,0.00,weatherlink.com 1.10,2013-02-01 12:49:00,
2013-02-01 05:05:00,48.8,16.0,30.03,NNW,347,0.0,-999.0,27,-99.99,,,0.00,weatherlink.com 1.10,2013-02-01 13:05:00,
2013-02-01 05:19:00,48.6,16.0,30.07,North,349,0.0,-999.0,27,-99.99,,,0.00,weatherlink.com 1.10,2013-02-01 13:19:00,
2013-02-01 05:35:00,48.8,15.0,30.06,NNW,347,0.0,-999.0,26,-99.99,,,0.00,weatherlink.com 1.10,2013-02-01 13:35:00,
2013-02-01 05:49:00,48.6,15.0,30.06,North,349,0.0,-999.0,26,-99.99,,,0.00,weatherlink.com 1.10,2013-02-01 13:49:00,
2013-02-01 06:05:00,48.2,15.0,30.07,NNW,347,0.0,-999.0,26,-99.99,,,0.00,weatherlink.com 1.10,2013-02-01 14:05:00,
2013-02-01 06:21:00,47.7,15.0,30.09,North,349,0.0,-999.0,27,-99.99,,,0.00,weatherlink.com 1.10,2013-02-01 14:21:00,
2013-02-01 06:34:00,47.7,15.0,30.09,North,349,0.0,-999.0,27,-99.99,,,0.00,weatherlink.com 1.10,2013-02-01 14:34:00,
2013-02-01 06:49:00,47.7,18.0,30.09,North,349,0.0,-999.0,30,-99.99,,,0.00,weatherlink.com 1.10,2013-02-01 14:49:00,
2013-02-01 07:05:00,47.4,17.0,30.10,NNW,347,0.0,-999.0,30,-99.99,,,0.00,weatherlink.com 1.10,2013-02-01 15:05:00,
2013-02-01 07:19:00,47.7,16.0,30.10,NNW,347,0.0,-999.0,28,-99.99,,,0.00,weatherlink.com 1.10,2013-02-01 15:19:00,
2013-02-01 07:34:00,47.9,16.0,30.11,NNW,347,0.0,-999.0,28,-99.99,,,0.00,weatherlink.com 1.10,2013-02-01 15:34:00,
2013-02-01 07:50:00,48.3,16.0,30.11,NNW,347,0.0,-999.0,28,-99.99,,,0.00,weatherlink.com 1.10,2013-02-01 15:50:00,
2013-02-01 08:04:00,50.4,17.0,30.10,NNW,347,1.0,-999.0,27,-99.99,,,0.00,weatherlink.com 1.10,2013-02-01 16:04:00,
2013-02-01 08:35:00,52.9,20.0,30.09,NNW,347,0.0,-999.0,27,-99.99,,,0.00,weatherlink.com 1.10,2013-02-01 16:35:00,
2013-02-01 08:50:00,54.7,22.0,30.08,NNW,347,0.0,-999.0,28,-99.99,,,0.00,weatherlink.com 1.10,2013-02-01 16:50:00,
2013-02-01 09:05:00,52.6,20.0,30.08,NNW,347,0.0,-999.0,28,-99.99,,,0.00,weatherlink.com 1.10,2013-02-01 17:05:00,
2013-02-01 09:20:00,53.8,20.0,30.08,NW,319,0.0,-999.0,27,-99.99,,,0.00,weatherlink.com 1.10,2013-02-01 17:20:00,
2013-02-01 09:35:00,52.9,20.0,30.10,NNE,21,1.0,-999.0,27,-99.99,,,0.00,weatherlink.com 1.10,2013-02-01 17:35:00,
2013-02-01 09:50:00,54.1,21.0,30.09,NW,304,1.0,-999.0,28,-99.99,,,0.00,weatherlink.com 1.10,2013-02-01 17:50:00,
2013-02-01 10:05:00,54.0,21.0,30.09,SE,130,0.0,-999.0,27,-99.99,,,0.00,weatherlink.com 1.10,2013-02-01 18:05:00,
2013-02-01 10:20:00,55.3,20.0,30.09,SE,130,0.0,-999.0,25,-99.99,,,0.00,weatherlink.com 1.10,2013-02-01 18:20:00,
2013-02-01 10:35:00,56.0,18.0,30.08,SE,130,2.0,-999.0,23,-99.99,,,0.00,weatherlink.com 1.10,2013-02-01 18:35:00,
2013-02-01 10:50:00,55.7,17.0,30.09,ESE,121,0.0,-999.0,22,-99.99,,,0.00,weatherlink.com 1.10,2013-02-01 18:50:00,
2013-02-01 11:05:00,56.8,23.0,30.08,West,271,0.0,-999.0,27,-99.99,,,0.00,weatherlink.com 1.10,2013-02-01 19:05:00,
2013-02-01 11:20:00,57.5,23.0,30.05,SSE,150,0.0,-999.0,26,-99.99,,,0.00,weatherlink.com 1.10,2013-02-01 19:20:00,
2013-02-01 11:35:00,56.9,21.0,30.04,SE,127,0.0,-999.0,25,-99.99,,,0.00,weatherlink.com 1.10,2013-02-01 19:35:00,
2013-02-01 11:50:00,58.9,27.0,30.02,SW,217,2.0,-999.0,30,-99.99,,,0.00,weatherlink.com 1.10,2013-02-01 19:50:00,
2013-02-01 12:05:00,58.7,28.0,30.02,WNW,289,2.0,-999.0,31,-99.99,,,0.00,weatherlink.com 1.10,2013-02-01 20:05:00,
2013-02-01 12:20:00,58.9,31.0,30.01,West,280,6.0,-999.0,35,-99.99,,,0.00,weatherlink.com 1.10,2013-02-01 20:20:00,
2013-02-01 12:35:00,57.6,30.0,30.02,SW,223,0.0,-999.0,35,-99.99,,,0.00,weatherlink.com 1.10,2013-02-01 20:35:00,
2013-02-01 12:50:00,58.5,28.0,30.02,East,82,0.0,-999.0,31,-99.99,,,0.00,weatherlink.com 1.10,2013-02-01 20:50:00,
2013-02-01 13:05:00,58.1,29.0,30.01,NE,51,0.0,-999.0,33,-99.99,,,0.00,weatherlink.com 1.10,2013-02-01 21:05:00,
2013-02-01 13:20:00,57.5,30.0,29.99,ENE,72,2.0,-999.0,35,-99.99,,,0.00,weatherlink.com 1.10,2013-02-01 21:20:00,
2013-02-01 13:35:00,56.3,29.0,29.99,SSW,193,3.0,-999.0,35,-99.99,,,0.00,weatherlink.com 1.10,2013-02-01 21:35:00,
2013-02-01 13:50:00,55.7,28.0,29.99,SSW,200,4.0,-999.0,34,-99.99,,,0.00,weatherlink.com 1.10,2013-02-01 21:50:00,
2013-02-01 14:05:00,54.5,26.0,30.01,South,186,1.0,-999.0,33,-99.99,,,0.00,weatherlink.com 1.10,2013-02-01 22:05:00,
2013-02-01 14:20:00,54.7,27.0,30.02,WSW,243,6.0,-999.0,34,-99.99,,,0.00,weatherlink.com 1.10,2013-02-01 22:20:00,
2013-02-01 14:35:00,53.7,29.0,30.02,WNW,285,7.0,-999.0,39,-99.99,,,0.00,weatherlink.com 1.10,2013-02-01 22:35:00,
2013-02-01 14:50:00,53.5,31.0,30.01,West,265,5.0,-999.0,43,-99.99,,,0.00,weatherlink.com 1.10,2013-02-01 22:50:00,
2013-02-01 15:05:00,53.2,29.0,30.03,West,265,4.0,-999.0,39,-99.99,,,0.00,weatherlink.com 1.10,2013-02-01 23:05:00,
2013-02-01 15:20:00,52.5,27.0,30.02,SW,217,8.0,-999.0,38,-99.99,,,0.00,weatherlink.com 1.10,2013-02-01 23:20:00,
2013-02-01 15:35:00,52.0,27.0,30.04,SSW,192,3.0,-999.0,38,-99.99,,,0.00,weatherlink.com 1.10,2013-02-01 23:35:00,
2013-02-01 15:50:00,51.6,28.0,30.04,South,186,7.0,-999.0,40,-99.99,,,0.00,weatherlink.com 1.10,2013-02-01 23:50:00,
2013-02-01 16:05:00,51.7,25.0,30.03,SW,232,0.0,-999.0,35,-99.99,,,0.00,weatherlink.com 1.10,2013-02-02 00:05:00,
2013-02-01 16:20:00,51.3,26.0,30.04,SW,229,0.0,-999.0,37,-99.99,,,0.00,weatherlink.com 1.10,2013-02-02 00:20:00,
2013-02-01 16:35:00,51.0,27.0,30.04,SW,229,0.0,-999.0,39,-99.99,,,0.00,weatherlink.com 1.10,2013-02-02 00:35:00,
2013-02-01 16:50:00,50.5,24.0,30.04,SSW,206,0.0,-999.0,35,-99.99,,,0.00,weatherlink.com 1.10,2013-02-02 00:50:00,
2013-02-01 17:05:00,49.7,25.0,30.05,WSW,256,0.0,-999.0,39,-99.99,,,0.00,weatherlink.com 1.10,2013-02-02 01:05:00,
2013-02-01 17:20:00,49.4,25.0,30.07,WNW,282,0.0,-999.0,38,-99.99,,,0.00,weatherlink.com 1.10,2013-02-02 01:20:00,
2013-02-01 17:35:00,49.5,23.0,30.07,West,260,4.0,-999.0,35,-99.99,,,0.00,weatherlink.com 1.10,2013-02-02 01:35:00,
2013-02-01 17:50:00,49.8,24.0,30.07,WSW,241,3.0,-999.0,36,-99.99,,,0.00,weatherlink.com 1.10,2013-02-02 01:50:00,
2013-02-01 18:05:00,49.1,23.0,30.10,West,272,0.0,-999.0,36,-99.99,,,0.00,weatherlink.com 1.10,2013-02-02 02:05:00,
2013-02-01 18:20:00,49.5,21.0,30.11,West,272,0.0,-999.0,33,-99.99,,,0.00,weatherlink.com 1.10,2013-02-02 02:20:00,
2013-02-01 18:35:00,49.7,24.0,30.11,West,272,0.0,-999.0,36,-99.99,,,0.00,weatherlink.com 1.10,2013-02-02 02:35:00,
2013-02-01 18:50:00,49.4,24.0,30.11,West,274,0.0,-999.0,37,-99.99,,,0.00,weatherlink.com 1.10,2013-02-02 02:50:00,
2013-02-01 19:05:00,49.1,25.0,30.12,West,271,0.0,-999.0,39,-99.99,,,0.00,weatherlink.com 1.10,2013-02-02 03:05:00,
2013-02-01 19:20:00,48.5,25.0,30.11,West,272,0.0,-999.0,40,-99.99,,,0.00,weatherlink.com 1.10,2013-02-02 03:20:00,
2013-02-01 19:35:00,48.2,26.0,30.11,West,271,0.0,-999.0,42,-99.99,,,0.00,weatherlink.com 1.10,2013-02-02 03:35:00,
2013-02-01 19:50:00,47.7,25.0,30.12,West,272,0.0,-999.0,42,-99.99,,,0.00,weatherlink.com 1.10,2013-02-02 03:50:00,
2013-02-01 20:05:00,48.0,25.0,30.12,West,272,0.0,-999.0,40,-99.99,,,0.00,weatherlink.com 1.10,2013-02-02 04:05:00,
2013-02-01 20:20:00,48.2,24.0,30.11,West,271,0.0,-999.0,39,-99.99,,,0.00,weatherlink.com 1.10,2013-02-02 04:20:00,
2013-02-01 20:35:00,48.2,24.0,30.11,West,270,0.0,-999.0,39,-99.99,,,0.00,weatherlink.com 1.10,2013-02-02 04:35:00,
2013-02-01 20:50:00,48.0,23.0,30.11,West,274,0.0,-999.0,38,-99.99,,,0.00,weatherlink.com 1.10,2013-02-02 04:50:00,
2013-02-01 21:05:00,48.2,25.0,30.11,West,272,0.0,-999.0,40,-99.99,,,0.00,weatherlink.com 1.10,2013-02-02 05:05:00,
2013-02-01 21:20:00,48.0,24.0,30.10,West,272,0.0,-999.0,39,-99.99,,,0.00,weatherlink.com 1.10,2013-02-02 05:20:00,
2013-02-01 21:35:00,47.4,25.0,30.11,West,271,0.0,-999.0,41,-99.99,,,0.00,weatherlink.com 1.10,2013-02-02 05:35:00,
2013-02-01 21:50:00,46.9,26.0,30.11,West,272,0.0,-999.0,44,-99.99,,,0.00,weatherlink.com 1.10,2013-02-02 05:50:00,
2013-02-01 22:06:00,47.0,26.0,30.12,West,271,0.0,-999.0,45,-99.99,,,0.00,weatherlink.com 1.10,2013-02-02 06:06:00,
2013-02-01 22:19:00,46.7,26.0,30.10,West,272,0.0,-999.0,44,-99.99,,,0.00,weatherlink.com 1.10,2013-02-02 06:19:00,
2013-02-01 22:34:00,46.7,26.0,30.09,West,272,0.0,-999.0,45,-99.99,,,0.00,weatherlink.com 1.10,2013-02-02 06:34:00,
2013-02-01 22:50:00,46.4,25.0,30.11,West,271,0.0,-999.0,44,-99.99,,,0.00,weatherlink.com 1.10,2013-02-02 06:50:00,
2013-02-01 23:05:00,45.8,25.0,30.10,West,271,0.0,-999.0,45,-99.99,,,0.00,weatherlink.com 1.10,2013-02-02 07:05:00,
2013-02-01 23:19:00,45.5,26.0,30.09,West,271,0.0,-999.0,46,-99.99,,,0.00,weatherlink.com 1.10,2013-02-02 07:19:00,
2013-02-01 23:34:00,47.4,21.0,30.08,East,96,4.0,-999.0,36,-99.99,,,0.00,weatherlink.com 1.10,2013-02-02 07:34:00,
2013-02-01 23:49:00,47.4,21.0,30.07,East,79,0.0,-999.0,35,-99.99,,,0.00,weatherlink.com 1.10,2013-02-02 07:49:00,